Terminal Aerodrome Forecast
Issued by NWS

Home | Current Version | Previous Version | Text Only | Print | Product List | Glossary On
Versions: 1 2 3 4 5 6 7 8 9 10 11 12 13 14 15 16 17 18 19 20 21 22 23 24 25 26 27
000
FTUS41 KRLX 231127
TAFCKB
TAF
KCKB 231127Z 2312/2412 VRB03KT 3SM BR SCT045 BKN100
     FM231300 00000KT P6SM SCT045 BKN100
     FM231400 15004KT P6SM -RA BKN035
     FM231500 18006KT 5SM -RA BKN025
     FM231700 20007G13KT P6SM BKN040
     FM240000 23005KT P6SM SHRA BKN010
     FM240400 24004KT 3SM BR BKN005
     FM240600 00000KT 1 1/2SM BR OVC003=

USA.gov is the U.S. government's official web portal to all federal, state and local government web resources and services.